sensor_id;sensor_type;location;lat;lon;timestamp;P1;durP1;ratioP1;P2;durP2;ratioP2
71360;SDS011;59166;48.908;1.870;2023-02-15T00:03:05;74.10;;;28.00;;
71360;SDS011;59166;48.908;1.870;2023-02-15T00:08:06;94.47;;;33.60;;
71360;SDS011;59166;48.908;1.870;2023-02-15T00:13:08;90.78;;;34.05;;
71360;SDS011;59166;48.908;1.870;2023-02-15T00:18:09;71.73;;;27.10;;
71360;SDS011;59166;48.908;1.870;2023-02-15T00:23:10;59.57;;;23.40;;
71360;SDS011;59166;48.908;1.870;2023-02-15T00:28:12;59.65;;;23.58;;
71360;SDS011;59166;48.908;1.870;2023-02-15T00:33:13;55.47;;;22.83;;
71360;SDS011;59166;48.908;1.870;2023-02-15T00:38:14;55.33;;;21.85;;
71360;SDS011;59166;48.908;1.870;2023-02-15T00:43:16;50.90;;;21.67;;
71360;SDS011;59166;48.908;1.870;2023-02-15T00:48:17;57.30;;;21.87;;
71360;SDS011;59166;48.908;1.870;2023-02-15T00:53:19;56.45;;;21.15;;
71360;SDS011;59166;48.908;1.870;2023-02-15T00:58:21;50.03;;;20.83;;
71360;SDS011;59166;48.908;1.870;2023-02-15T01:03:22;56.87;;;21.63;;
71360;SDS011;59166;48.908;1.870;2023-02-15T01:08:23;52.03;;;20.88;;
71360;SDS011;59166;48.908;1.870;2023-02-15T01:13:26;49.90;;;19.77;;
71360;SDS011;59166;48.908;1.870;2023-02-15T01:18:27;50.00;;;19.03;;
71360;SDS011;59166;48.908;1.870;2023-02-15T01:23:28;48.20;;;19.45;;
71360;SDS011;59166;48.908;1.870;2023-02-15T01:28:30;43.80;;;18.03;;
71360;SDS011;59166;48.908;1.870;2023-02-15T01:33:31;50.33;;;19.52;;
71360;SDS011;59166;48.908;1.870;2023-02-15T01:38:32;52.05;;;20.00;;
71360;SDS011;59166;48.908;1.870;2023-02-15T01:43:45;59.43;;;21.87;;
71360;SDS011;59166;48.908;1.870;2023-02-15T01:48:48;58.28;;;23.95;;
71360;SDS011;59166;48.908;1.870;2023-02-15T01:53:53;63.75;;;23.67;;
71360;SDS011;59166;48.908;1.870;2023-02-15T01:59:03;58.10;;;23.20;;
71360;SDS011;59166;48.908;1.870;2023-02-15T02:04:08;58.40;;;23.40;;
71360;SDS011;59166;48.908;1.870;2023-02-15T02:09:15;59.20;;;23.70;;
71360;SDS011;59166;48.908;1.870;2023-02-15T02:14:17;61.42;;;23.73;;
71360;SDS011;59166;48.908;1.870;2023-02-15T02:25:01;64.00;;;25.42;;
71360;SDS011;59166;48.908;1.870;2023-02-15T02:30:34;65.60;;;24.48;;
71360;SDS011;59166;48.908;1.870;2023-02-15T02:36:05;58.10;;;22.13;;
71360;SDS011;59166;48.908;1.870;2023-02-15T02:41:48;51.45;;;21.83;;
71360;SDS011;59166;48.908;1.870;2023-02-15T02:47:15;57.20;;;22.77;;
71360;SDS011;59166;48.908;1.870;2023-02-15T02:52:39;55.77;;;21.93;;
71360;SDS011;59166;48.908;1.870;2023-02-15T02:57:44;55.70;;;20.90;;
71360;SDS011;59166;48.908;1.870;2023-02-15T03:03:06;57.60;;;20.77;;
71360;SDS011;59166;48.908;1.870;2023-02-15T03:08:14;53.70;;;20.45;;
71360;SDS011;59166;48.908;1.870;2023-02-15T03:13:18;55.33;;;21.50;;
71360;SDS011;59166;48.908;1.870;2023-02-15T03:18:20;57.05;;;21.17;;
71360;SDS011;59166;48.908;1.870;2023-02-15T03:23:27;55.13;;;21.08;;
71360;SDS011;59166;48.908;1.870;2023-02-15T03:28:31;52.67;;;21.40;;
71360;SDS011;59166;48.908;1.870;2023-02-15T03:33:37;57.47;;;20.70;;
71360;SDS011;59166;48.908;1.870;2023-02-15T03:38:44;56.03;;;21.65;;
71360;SDS011;59166;48.908;1.870;2023-02-15T03:43:51;51.63;;;20.03;;
71360;SDS011;59166;48.908;1.870;2023-02-15T03:48:57;56.47;;;21.43;;
71360;SDS011;59166;48.908;1.870;2023-02-15T03:54:04;59.72;;;23.00;;
71360;SDS011;59166;48.908;1.870;2023-02-15T03:59:08;57.70;;;22.20;;
71360;SDS011;59166;48.908;1.870;2023-02-15T04:04:09;64.83;;;23.97;;
71360;SDS011;59166;48.908;1.870;2023-02-15T04:09:15;62.08;;;22.85;;
71360;SDS011;59166;48.908;1.870;2023-02-15T04:14:16;57.57;;;22.43;;
71360;SDS011;59166;48.908;1.870;2023-02-15T04:19:17;54.95;;;22.00;;
71360;SDS011;59166;48.908;1.870;2023-02-15T04:24:19;58.73;;;22.33;;
71360;SDS011;59166;48.908;1.870;2023-02-15T04:29:20;61.92;;;22.63;;
71360;SDS011;59166;48.908;1.870;2023-02-15T04:34:21;67.73;;;24.20;;
71360;SDS011;59166;48.908;1.870;2023-02-15T04:39:23;58.10;;;22.92;;
71360;SDS011;59166;48.908;1.870;2023-02-15T04:44:24;62.83;;;22.67;;
71360;SDS011;59166;48.908;1.870;2023-02-15T04:49:24;62.57;;;23.30;;
71360;SDS011;59166;48.908;1.870;2023-02-15T04:54:26;61.90;;;22.53;;
71360;SDS011;59166;48.908;1.870;2023-02-15T04:59:27;63.80;;;23.27;;
71360;SDS011;59166;48.908;1.870;2023-02-15T05:04:28;59.73;;;24.03;;
71360;SDS011;59166;48.908;1.870;2023-02-15T05:09:30;64.40;;;23.25;;
71360;SDS011;59166;48.908;1.870;2023-02-15T05:14:30;56.43;;;22.37;;
71360;SDS011;59166;48.908;1.870;2023-02-15T05:19:31;55.90;;;21.93;;
71360;SDS011;59166;48.908;1.870;2023-02-15T05:24:33;62.37;;;22.30;;
71360;SDS011;59166;48.908;1.870;2023-02-15T05:29:34;52.35;;;20.58;;
71360;SDS011;59166;48.908;1.870;2023-02-15T05:34:35;61.67;;;22.37;;
71360;SDS011;59166;48.908;1.870;2023-02-15T05:39:37;62.83;;;22.73;;
71360;SDS011;59166;48.908;1.870;2023-02-15T05:44:38;62.25;;;23.17;;
71360;SDS011;59166;48.908;1.870;2023-02-15T05:49:38;65.10;;;23.30;;
71360;SDS011;59166;48.908;1.870;2023-02-15T05:54:40;68.83;;;24.90;;
71360;SDS011;59166;48.908;1.870;2023-02-15T05:59:41;64.07;;;23.70;;
71360;SDS011;59166;48.908;1.870;2023-02-15T06:04:41;69.87;;;24.47;;
71360;SDS011;59166;48.908;1.870;2023-02-15T06:09:43;59.97;;;23.30;;
71360;SDS011;59166;48.908;1.870;2023-02-15T06:14:44;70.35;;;24.27;;
71360;SDS011;59166;48.908;1.870;2023-02-15T06:19:45;66.30;;;25.53;;
71360;SDS011;59166;48.908;1.870;2023-02-15T06:24:47;67.97;;;24.52;;
71360;SDS011;59166;48.908;1.870;2023-02-15T06:29:47;70.60;;;25.67;;
71360;SDS011;59166;48.908;1.870;2023-02-15T06:34:48;66.75;;;26.23;;
71360;SDS011;59166;48.908;1.870;2023-02-15T06:39:50;65.67;;;25.73;;
71360;SDS011;59166;48.908;1.870;2023-02-15T06:44:50;68.43;;;25.92;;
71360;SDS011;59166;48.908;1.870;2023-02-15T06:49:51;62.77;;;24.97;;
71360;SDS011;59166;48.908;1.870;2023-02-15T06:54:53;68.30;;;25.33;;
71360;SDS011;59166;48.908;1.870;2023-02-15T06:59:54;64.22;;;24.70;;
71360;SDS011;59166;48.908;1.870;2023-02-15T07:04:54;64.70;;;25.73;;
71360;SDS011;59166;48.908;1.870;2023-02-15T07:09:56;66.97;;;25.07;;
71360;SDS011;59166;48.908;1.870;2023-02-15T07:14:57;85.45;;;33.55;;
71360;SDS011;59166;48.908;1.870;2023-02-15T07:19:58;84.17;;;33.03;;
71360;SDS011;59166;48.908;1.870;2023-02-15T07:25:00;73.38;;;27.08;;
71360;SDS011;59166;48.908;1.870;2023-02-15T07:30:00;71.73;;;26.10;;
71360;SDS011;59166;48.908;1.870;2023-02-15T07:35:01;67.90;;;24.67;;
71360;SDS011;59166;48.908;1.870;2023-02-15T07:40:04;67.07;;;25.63;;
71360;SDS011;59166;48.908;1.870;2023-02-15T07:45:06;66.00;;;25.52;;
71360;SDS011;59166;48.908;1.870;2023-02-15T07:50:07;69.68;;;26.42;;
71360;SDS011;59166;48.908;1.870;2023-02-15T07:55:10;66.77;;;25.87;;
71360;SDS011;59166;48.908;1.870;2023-02-15T08:00:11;67.22;;;25.00;;
71360;SDS011;59166;48.908;1.870;2023-02-15T08:05:13;66.80;;;24.63;;
71360;SDS011;59166;48.908;1.870;2023-02-15T08:10:15;73.57;;;26.63;;
71360;SDS011;59166;48.908;1.870;2023-02-15T08:15:16;76.28;;;27.75;;
71360;SDS011;59166;48.908;1.870;2023-02-15T08:20:16;90.80;;;31.33;;
71360;SDS011;59166;48.908;1.870;2023-02-15T08:25:19;100.33;;;34.30;;
71360;SDS011;59166;48.908;1.870;2023-02-15T08:30:19;95.27;;;34.43;;
71360;SDS011;59166;48.908;1.870;2023-02-15T08:35:20;116.18;;;38.05;;
71360;SDS011;59166;48.908;1.870;2023-02-15T08:40:22;118.07;;;38.73;;
71360;SDS011;59166;48.908;1.870;2023-02-15T08:45:22;113.90;;;36.87;;
71360;SDS011;59166;48.908;1.870;2023-02-15T08:56:02;90.70;;;31.87;;
71360;SDS011;59166;48.908;1.870;2023-02-15T09:01:10;86.13;;;31.83;;
71360;SDS011;59166;48.908;1.870;2023-02-15T09:06:11;91.30;;;32.42;;
71360;SDS011;59166;48.908;1.870;2023-02-15T09:11:14;69.53;;;28.87;;
71360;SDS011;59166;48.908;1.870;2023-02-15T09:16:17;75.03;;;29.43;;
71360;SDS011;59166;48.908;1.870;2023-02-15T09:21:19;68.68;;;28.35;;
71360;SDS011;59166;48.908;1.870;2023-02-15T09:26:23;73.97;;;29.93;;
71360;SDS011;59166;48.908;1.870;2023-02-15T09:31:25;75.78;;;29.20;;
71360;SDS011;59166;48.908;1.870;2023-02-15T09:36:28;75.43;;;29.92;;
71360;SDS011;59166;48.908;1.870;2023-02-15T09:41:39;72.03;;;29.33;;
71360;SDS011;59166;48.908;1.870;2023-02-15T09:47:19;66.63;;;27.80;;
71360;SDS011;59166;48.908;1.870;2023-02-15T09:52:40;67.53;;;27.85;;
71360;SDS011;59166;48.908;1.870;2023-02-15T09:57:53;66.13;;;28.15;;
71360;SDS011;59166;48.908;1.870;2023-02-15T10:03:20;62.60;;;26.40;;
71360;SDS011;59166;48.908;1.870;2023-02-15T10:08:55;68.10;;;28.05;;
71360;SDS011;59166;48.908;1.870;2023-02-15T10:14:28;68.38;;;28.13;;
71360;SDS011;59166;48.908;1.870;2023-02-15T10:19:44;65.53;;;27.40;;
71360;SDS011;59166;48.908;1.870;2023-02-15T10:24:58;60.53;;;26.58;;
71360;SDS011;59166;48.908;1.870;2023-02-15T10:30:43;59.60;;;26.58;;
71360;SDS011;59166;48.908;1.870;2023-02-15T10:35:48;62.73;;;26.60;;
71360;SDS011;59166;48.908;1.870;2023-02-15T10:41:00;59.13;;;25.97;;
71360;SDS011;59166;48.908;1.870;2023-02-15T10:46:16;57.00;;;25.17;;
71360;SDS011;59166;48.908;1.870;2023-02-15T10:51:34;55.78;;;24.42;;
71360;SDS011;59166;48.908;1.870;2023-02-15T10:56:47;55.40;;;25.30;;
71360;SDS011;59166;48.908;1.870;2023-02-15T11:01:59;60.03;;;27.55;;
71360;SDS011;59166;48.908;1.870;2023-02-15T11:07:08;59.13;;;26.70;;
71360;SDS011;59166;48.908;1.870;2023-02-15T11:12:17;59.60;;;27.53;;
71360;SDS011;59166;48.908;1.870;2023-02-15T11:17:25;58.88;;;26.98;;
71360;SDS011;59166;48.908;1.870;2023-02-15T11:22:32;55.72;;;25.65;;
71360;SDS011;59166;48.908;1.870;2023-02-15T11:27:34;55.57;;;26.53;;
71360;SDS011;59166;48.908;1.870;2023-02-15T11:32:38;55.20;;;25.60;;
71360;SDS011;59166;48.908;1.870;2023-02-15T11:37:45;53.70;;;26.35;;
71360;SDS011;59166;48.908;1.870;2023-02-15T11:42:48;50.63;;;24.05;;
71360;SDS011;59166;48.908;1.870;2023-02-15T11:47:53;52.00;;;23.60;;
71360;SDS011;59166;48.908;1.870;2023-02-15T11:52:56;45.47;;;21.83;;
71360;SDS011;59166;48.908;1.870;2023-02-15T11:58:01;45.55;;;21.80;;
71360;SDS011;59166;48.908;1.870;2023-02-15T12:03:14;48.27;;;22.23;;
71360;SDS011;59166;48.908;1.870;2023-02-15T12:08:18;42.75;;;19.92;;
71360;SDS011;59166;48.908;1.870;2023-02-15T12:13:20;42.58;;;18.92;;
71360;SDS011;59166;48.908;1.870;2023-02-15T12:18:27;44.07;;;19.07;;
71360;SDS011;59166;48.908;1.870;2023-02-15T12:23:39;44.83;;;21.23;;
71360;SDS011;59166;48.908;1.870;2023-02-15T12:28:44;40.10;;;18.58;;
71360;SDS011;59166;48.908;1.870;2023-02-15T12:33:52;41.00;;;17.37;;
71360;SDS011;59166;48.908;1.870;2023-02-15T12:44:25;34.95;;;16.40;;
71360;SDS011;59166;48.908;1.870;2023-02-15T12:49:29;35.97;;;16.50;;
71360;SDS011;59166;48.908;1.870;2023-02-15T12:54:34;35.80;;;16.37;;
71360;SDS011;59166;48.908;1.870;2023-02-15T12:59:42;34.72;;;17.02;;
71360;SDS011;59166;48.908;1.870;2023-02-15T13:04:50;29.13;;;14.82;;
71360;SDS011;59166;48.908;1.870;2023-02-15T13:09:51;28.00;;;13.47;;
71360;SDS011;59166;48.908;1.870;2023-02-15T13:14:53;24.67;;;12.15;;
71360;SDS011;59166;48.908;1.870;2023-02-15T13:19:57;26.30;;;13.07;;
71360;SDS011;59166;48.908;1.870;2023-02-15T13:25:03;26.90;;;12.23;;
71360;SDS011;59166;48.908;1.870;2023-02-15T13:30:13;26.52;;;11.95;;
71360;SDS011;59166;48.908;1.870;2023-02-15T13:35:23;26.75;;;13.10;;
71360;SDS011;59166;48.908;1.870;2023-02-15T13:40:32;25.70;;;13.33;;
71360;SDS011;59166;48.908;1.870;2023-02-15T13:45:38;26.20;;;13.20;;
71360;SDS011;59166;48.908;1.870;2023-02-15T13:50:54;25.05;;;12.90;;
71360;SDS011;59166;48.908;1.870;2023-02-15T13:56:05;28.75;;;13.05;;
71360;SDS011;59166;48.908;1.870;2023-02-15T14:01:09;24.83;;;12.13;;
71360;SDS011;59166;48.908;1.870;2023-02-15T14:06:19;26.10;;;12.75;;
71360;SDS011;59166;48.908;1.870;2023-02-15T14:11:36;24.10;;;12.60;;
71360;SDS011;59166;48.908;1.870;2023-02-15T14:16:45;25.83;;;13.43;;
71360;SDS011;59166;48.908;1.870;2023-02-15T14:22:14;24.90;;;12.38;;
71360;SDS011;59166;48.908;1.870;2023-02-15T14:27:23;24.83;;;12.27;;
71360;SDS011;59166;48.908;1.870;2023-02-15T14:32:36;19.47;;;10.30;;
71360;SDS011;59166;48.908;1.870;2023-02-15T14:37:44;20.23;;;9.90;;
71360;SDS011;59166;48.908;1.870;2023-02-15T14:42:51;17.77;;;9.63;;
71360;SDS011;59166;48.908;1.870;2023-02-15T14:48:02;18.60;;;9.85;;
71360;SDS011;59166;48.908;1.870;2023-02-15T14:53:22;20.63;;;9.90;;
71360;SDS011;59166;48.908;1.870;2023-02-15T14:58:32;21.42;;;9.63;;
71360;SDS011;59166;48.908;1.870;2023-02-15T15:03:32;20.13;;;9.57;;
71360;SDS011;59166;48.908;1.870;2023-02-15T15:08:37;19.83;;;9.20;;
71360;SDS011;59166;48.908;1.870;2023-02-15T15:13:53;20.35;;;9.55;;
71360;SDS011;59166;48.908;1.870;2023-02-15T15:18:55;20.53;;;10.03;;
71360;SDS011;59166;48.908;1.870;2023-02-15T15:23:58;21.35;;;9.02;;
71360;SDS011;59166;48.908;1.870;2023-02-15T15:28:59;18.25;;;8.18;;
71360;SDS011;59166;48.908;1.870;2023-02-15T15:34:13;19.30;;;7.73;;
71360;SDS011;59166;48.908;1.870;2023-02-15T15:39:32;19.10;;;7.97;;
71360;SDS011;59166;48.908;1.870;2023-02-15T15:45:02;20.08;;;8.57;;
71360;SDS011;59166;48.908;1.870;2023-02-15T15:50:22;16.98;;;7.65;;
71360;SDS011;59166;48.908;1.870;2023-02-15T15:55:25;17.40;;;8.27;;
71360;SDS011;59166;48.908;1.870;2023-02-15T16:00:30;18.20;;;8.48;;
71360;SDS011;59166;48.908;1.870;2023-02-15T16:05:36;18.90;;;8.80;;
71360;SDS011;59166;48.908;1.870;2023-02-15T16:10:38;19.75;;;9.40;;
71360;SDS011;59166;48.908;1.870;2023-02-15T16:15:42;18.90;;;8.80;;
71360;SDS011;59166;48.908;1.870;2023-02-15T16:20:48;19.43;;;9.23;;
71360;SDS011;59166;48.908;1.870;2023-02-15T16:25:55;18.85;;;9.55;;
71360;SDS011;59166;48.908;1.870;2023-02-15T16:31:07;18.90;;;9.38;;
71360;SDS011;59166;48.908;1.870;2023-02-15T16:36:12;20.37;;;9.80;;
71360;SDS011;59166;48.908;1.870;2023-02-15T16:41:23;18.90;;;9.43;;
71360;SDS011;59166;48.908;1.870;2023-02-15T16:46:26;18.60;;;9.30;;
71360;SDS011;59166;48.908;1.870;2023-02-15T16:51:31;16.77;;;8.82;;
71360;SDS011;59166;48.908;1.870;2023-02-15T16:56:35;17.57;;;8.43;;
71360;SDS011;59166;48.908;1.870;2023-02-15T17:01:36;17.40;;;8.05;;
71360;SDS011;59166;48.908;1.870;2023-02-15T17:06:36;15.97;;;7.47;;
71360;SDS011;59166;48.908;1.870;2023-02-15T17:11:39;15.18;;;7.13;;
71360;SDS011;59166;48.908;1.870;2023-02-15T17:16:42;16.70;;;6.90;;
71360;SDS011;59166;48.908;1.870;2023-02-15T17:21:46;14.35;;;6.75;;
71360;SDS011;59166;48.908;1.870;2023-02-15T17:26:51;17.23;;;8.25;;
71360;SDS011;59166;48.908;1.870;2023-02-15T17:31:55;16.00;;;7.80;;
71360;SDS011;59166;48.908;1.870;2023-02-15T17:36:57;16.00;;;7.50;;
71360;SDS011;59166;48.908;1.870;2023-02-15T17:41:59;15.57;;;7.93;;
71360;SDS011;59166;48.908;1.870;2023-02-15T17:47:00;17.10;;;9.80;;
71360;SDS011;59166;48.908;1.870;2023-02-15T17:52:01;18.97;;;10.07;;
71360;SDS011;59166;48.908;1.870;2023-02-15T17:57:04;18.00;;;9.40;;
71360;SDS011;59166;48.908;1.870;2023-02-15T18:02:11;21.42;;;10.98;;
71360;SDS011;59166;48.908;1.870;2023-02-15T18:07:12;22.10;;;11.23;;
71360;SDS011;59166;48.908;1.870;2023-02-15T18:12:17;25.63;;;13.63;;
71360;SDS011;59166;48.908;1.870;2023-02-15T18:17:21;25.33;;;13.18;;
71360;SDS011;59166;48.908;1.870;2023-02-15T18:22:26;25.00;;;11.80;;
71360;SDS011;59166;48.908;1.870;2023-02-15T18:27:30;26.17;;;11.07;;
71360;SDS011;59166;48.908;1.870;2023-02-15T18:32:31;23.42;;;11.45;;
71360;SDS011;59166;48.908;1.870;2023-02-15T18:37:34;26.13;;;12.90;;
71360;SDS011;59166;48.908;1.870;2023-02-15T18:42:36;26.37;;;12.50;;
71360;SDS011;59166;48.908;1.870;2023-02-15T18:47:37;25.15;;;12.20;;
71360;SDS011;59166;48.908;1.870;2023-02-15T18:52:37;27.63;;;13.50;;
71360;SDS011;59166;48.908;1.870;2023-02-15T18:57:40;29.83;;;14.18;;
71360;SDS011;59166;48.908;1.870;2023-02-15T19:02:41;28.60;;;13.50;;
71360;SDS011;59166;48.908;1.870;2023-02-15T19:07:41;25.67;;;12.60;;
71360;SDS011;59166;48.908;1.870;2023-02-15T19:12:43;24.90;;;11.37;;
71360;SDS011;59166;48.908;1.870;2023-02-15T19:17:44;23.05;;;11.25;;
71360;SDS011;59166;48.908;1.870;2023-02-15T19:22:45;23.23;;;10.77;;
71360;SDS011;59166;48.908;1.870;2023-02-15T19:27:49;20.73;;;10.00;;
71360;SDS011;59166;48.908;1.870;2023-02-15T19:32:51;20.17;;;9.87;;
71360;SDS011;59166;48.908;1.870;2023-02-15T19:37:52;23.00;;;11.03;;
71360;SDS011;59166;48.908;1.870;2023-02-15T19:42:56;29.33;;;13.87;;
71360;SDS011;59166;48.908;1.870;2023-02-15T19:47:59;30.97;;;15.33;;
71360;SDS011;59166;48.908;1.870;2023-02-15T19:53:00;26.98;;;13.25;;
71360;SDS011;59166;48.908;1.870;2023-02-15T19:58:03;29.67;;;13.73;;
71360;SDS011;59166;48.908;1.870;2023-02-15T20:03:10;22.90;;;11.73;;
71360;SDS011;59166;48.908;1.870;2023-02-15T20:08:13;24.70;;;11.70;;
71360;SDS011;59166;48.908;1.870;2023-02-15T20:13:17;22.30;;;11.10;;
71360;SDS011;59166;48.908;1.870;2023-02-15T20:18:19;25.38;;;12.20;;
71360;SDS011;59166;48.908;1.870;2023-02-15T20:23:20;23.73;;;12.17;;
71360;SDS011;59166;48.908;1.870;2023-02-15T20:28:25;23.40;;;11.98;;
71360;SDS011;59166;48.908;1.870;2023-02-15T20:33:27;22.52;;;11.27;;
71360;SDS011;59166;48.908;1.870;2023-02-15T20:38:28;23.60;;;11.03;;
71360;SDS011;59166;48.908;1.870;2023-02-15T20:43:32;23.02;;;11.27;;
71360;SDS011;59166;48.908;1.870;2023-02-15T20:48:33;26.20;;;11.68;;
71360;SDS011;59166;48.908;1.870;2023-02-15T20:53:34;26.03;;;13.23;;
71360;SDS011;59166;48.908;1.870;2023-02-15T20:58:36;22.90;;;11.73;;
71360;SDS011;59166;48.908;1.870;2023-02-15T21:03:37;25.25;;;12.65;;
71360;SDS011;59166;48.908;1.870;2023-02-15T21:08:37;25.20;;;11.80;;
71360;SDS011;59166;48.908;1.870;2023-02-15T21:13:39;25.63;;;12.10;;
71360;SDS011;59166;48.908;1.870;2023-02-15T21:18:40;24.00;;;12.30;;
71360;SDS011;59166;48.908;1.870;2023-02-15T21:23:41;27.87;;;13.10;;
71360;SDS011;59166;48.908;1.870;2023-02-15T21:28:44;28.10;;;12.37;;
71360;SDS011;59166;48.908;1.870;2023-02-15T21:33:46;26.23;;;12.63;;
71360;SDS011;59166;48.908;1.870;2023-02-15T21:38:46;26.20;;;12.45;;
71360;SDS011;59166;48.908;1.870;2023-02-15T21:43:49;31.60;;;14.13;;
71360;SDS011;59166;48.908;1.870;2023-02-15T21:48:50;27.13;;;13.20;;
71360;SDS011;59166;48.908;1.870;2023-02-15T21:53:50;25.70;;;12.13;;
71360;SDS011;59166;48.908;1.870;2023-02-15T21:58:52;24.83;;;12.30;;
71360;SDS011;59166;48.908;1.870;2023-02-15T22:03:53;23.70;;;11.63;;
71360;SDS011;59166;48.908;1.870;2023-02-15T22:08:55;25.63;;;12.32;;
71360;SDS011;59166;48.908;1.870;2023-02-15T22:13:58;26.15;;;13.18;;
71360;SDS011;59166;48.908;1.870;2023-02-15T22:18:59;25.63;;;13.17;;
71360;SDS011;59166;48.908;1.870;2023-02-15T22:23:59;25.67;;;12.38;;
71360;SDS011;59166;48.908;1.870;2023-02-15T22:29:01;25.20;;;12.30;;
71360;SDS011;59166;48.908;1.870;2023-02-15T22:34:02;28.65;;;12.98;;
71360;SDS011;59166;48.908;1.870;2023-02-15T22:39:02;28.73;;;13.03;;
71360;SDS011;59166;48.908;1.870;2023-02-15T22:44:05;26.47;;;12.73;;
71360;SDS011;59166;48.908;1.870;2023-02-15T22:49:08;30.85;;;14.85;;
71360;SDS011;59166;48.908;1.870;2023-02-15T22:54:11;27.02;;;13.10;;
71360;SDS011;59166;48.908;1.870;2023-02-15T22:59:14;26.23;;;12.80;;
71360;SDS011;59166;48.908;1.870;2023-02-15T23:04:19;27.85;;;13.15;;
71360;SDS011;59166;48.908;1.870;2023-02-15T23:09:21;25.27;;;12.20;;
71360;SDS011;59166;48.908;1.870;2023-02-15T23:14:24;26.97;;;12.33;;
71360;SDS011;59166;48.908;1.870;2023-02-15T23:19:25;28.23;;;11.93;;
71360;SDS011;59166;48.908;1.870;2023-02-15T23:24:27;26.70;;;11.87;;
71360;SDS011;59166;48.908;1.870;2023-02-15T23:29:30;25.95;;;12.43;;
71360;SDS011;59166;48.908;1.870;2023-02-15T23:34:31;28.03;;;12.03;;
71360;SDS011;59166;48.908;1.870;2023-02-15T23:39:31;31.20;;;13.30;;
71360;SDS011;59166;48.908;1.870;2023-02-15T23:44:34;27.07;;;12.70;;
71360;SDS011;59166;48.908;1.870;2023-02-15T23:49:35;27.48;;;12.70;;
71360;SDS011;59166;48.908;1.870;2023-02-15T23:54:36;25.17;;;12.17;;
71360;SDS011;59166;48.908;1.870;2023-02-15T23:59:38;29.92;;;12.90;;
